sensor_id;sensor_type;location;lat;lon;timestamp;P1;durP1;ratioP1;P2;durP2;ratioP2
5428;SDS011;2737;52.386;9.980;2022-08-07T00:00:48;4.97;;;3.30;;
5428;SDS011;2737;52.386;9.980;2022-08-07T00:03:15;5.60;;;2.50;;
5428;SDS011;2737;52.386;9.980;2022-08-07T00:05:42;5.43;;;2.90;;
5428;SDS011;2737;52.386;9.980;2022-08-07T00:08:09;3.47;;;2.90;;
5428;SDS011;2737;52.386;9.980;2022-08-07T00:10:36;4.60;;;2.90;;
5428;SDS011;2737;52.386;9.980;2022-08-07T00:13:04;8.20;;;3.37;;
5428;SDS011;2737;52.386;9.980;2022-08-07T00:15:33;5.50;;;3.43;;
5428;SDS011;2737;52.386;9.980;2022-08-07T00:18:00;6.60;;;3.30;;
5428;SDS011;2737;52.386;9.980;2022-08-07T00:20:27;5.00;;;3.20;;
5428;SDS011;2737;52.386;9.980;2022-08-07T00:22:54;5.20;;;3.20;;
5428;SDS011;2737;52.386;9.980;2022-08-07T00:25:22;6.50;;;3.07;;
5428;SDS011;2737;52.386;9.980;2022-08-07T00:27:50;5.20;;;3.13;;
5428;SDS011;2737;52.386;9.980;2022-08-07T00:30:17;5.33;;;3.00;;
5428;SDS011;2737;52.386;9.980;2022-08-07T00:32:47;5.10;;;3.20;;
5428;SDS011;2737;52.386;9.980;2022-08-07T00:35:14;7.60;;;4.33;;
5428;SDS011;2737;52.386;9.980;2022-08-07T00:37:42;9.20;;;2.57;;
5428;SDS011;2737;52.386;9.980;2022-08-07T00:40:10;4.27;;;3.10;;
5428;SDS011;2737;52.386;9.980;2022-08-07T00:42:38;4.43;;;3.00;;
5428;SDS011;2737;52.386;9.980;2022-08-07T00:45:06;6.30;;;2.90;;
5428;SDS011;2737;52.386;9.980;2022-08-07T00:47:34;3.30;;;2.87;;
5428;SDS011;2737;52.386;9.980;2022-08-07T00:50:05;7.30;;;3.00;;
5428;SDS011;2737;52.386;9.980;2022-08-07T00:52:33;5.27;;;3.50;;
5428;SDS011;2737;52.386;9.980;2022-08-07T00:55:01;5.30;;;3.77;;
5428;SDS011;2737;52.386;9.980;2022-08-07T00:57:29;4.90;;;3.30;;
5428;SDS011;2737;52.386;9.980;2022-08-07T00:59:56;8.67;;;4.60;;
5428;SDS011;2737;52.386;9.980;2022-08-07T01:02:23;5.03;;;3.00;;
5428;SDS011;2737;52.386;9.980;2022-08-07T01:04:51;8.23;;;3.37;;
5428;SDS011;2737;52.386;9.980;2022-08-07T01:07:20;3.50;;;3.00;;
5428;SDS011;2737;52.386;9.980;2022-08-07T01:09:48;3.87;;;2.93;;
5428;SDS011;2737;52.386;9.980;2022-08-07T01:12:15;5.37;;;2.97;;
5428;SDS011;2737;52.386;9.980;2022-08-07T01:14:43;4.10;;;3.70;;
5428;SDS011;2737;52.386;9.980;2022-08-07T01:17:10;4.10;;;2.93;;
5428;SDS011;2737;52.386;9.980;2022-08-07T01:19:38;4.93;;;3.13;;
5428;SDS011;2737;52.386;9.980;2022-08-07T01:22:07;4.77;;;3.50;;
5428;SDS011;2737;52.386;9.980;2022-08-07T01:24:34;3.43;;;3.13;;
5428;SDS011;2737;52.386;9.980;2022-08-07T01:27:02;4.47;;;3.10;;
5428;SDS011;2737;52.386;9.980;2022-08-07T01:29:30;6.07;;;4.07;;
5428;SDS011;2737;52.386;9.980;2022-08-07T01:31:58;6.77;;;2.80;;
5428;SDS011;2737;52.386;9.980;2022-08-07T01:34:25;5.87;;;3.57;;
5428;SDS011;2737;52.386;9.980;2022-08-07T01:36:56;4.57;;;3.10;;
5428;SDS011;2737;52.386;9.980;2022-08-07T01:39:26;4.27;;;3.37;;
5428;SDS011;2737;52.386;9.980;2022-08-07T01:41:53;5.73;;;3.20;;
5428;SDS011;2737;52.386;9.980;2022-08-07T01:44:21;6.70;;;3.77;;
5428;SDS011;2737;52.386;9.980;2022-08-07T01:46:48;5.70;;;3.83;;
5428;SDS011;2737;52.386;9.980;2022-08-07T01:49:16;5.30;;;3.30;;
5428;SDS011;2737;52.386;9.980;2022-08-07T01:51:43;7.90;;;3.63;;
5428;SDS011;2737;52.386;9.980;2022-08-07T01:54:13;5.10;;;3.30;;
5428;SDS011;2737;52.386;9.980;2022-08-07T01:56:45;4.00;;;3.43;;
5428;SDS011;2737;52.386;9.980;2022-08-07T01:59:17;7.13;;;4.17;;
5428;SDS011;2737;52.386;9.980;2022-08-07T02:01:52;5.33;;;3.57;;
5428;SDS011;2737;52.386;9.980;2022-08-07T02:04:24;4.90;;;3.50;;
5428;SDS011;2737;52.386;9.980;2022-08-07T02:06:54;6.40;;;4.10;;
5428;SDS011;2737;52.386;9.980;2022-08-07T02:09:22;5.67;;;3.77;;
5428;SDS011;2737;52.386;9.980;2022-08-07T02:11:54;8.70;;;3.87;;
5428;SDS011;2737;52.386;9.980;2022-08-07T02:14:23;4.53;;;3.70;;
5428;SDS011;2737;52.386;9.980;2022-08-07T02:16:52;7.20;;;4.33;;
5428;SDS011;2737;52.386;9.980;2022-08-07T02:19:20;5.30;;;3.50;;
5428;SDS011;2737;52.386;9.980;2022-08-07T02:21:49;4.53;;;3.47;;
5428;SDS011;2737;52.386;9.980;2022-08-07T02:24:19;5.43;;;3.53;;
5428;SDS011;2737;52.386;9.980;2022-08-07T02:26:47;5.50;;;3.63;;
5428;SDS011;2737;52.386;9.980;2022-08-07T02:29:16;5.80;;;3.70;;
5428;SDS011;2737;52.386;9.980;2022-08-07T02:31:45;7.13;;;4.07;;
5428;SDS011;2737;52.386;9.980;2022-08-07T02:34:13;6.73;;;3.83;;
5428;SDS011;2737;52.386;9.980;2022-08-07T02:36:40;7.10;;;4.00;;
5428;SDS011;2737;52.386;9.980;2022-08-07T02:39:08;6.10;;;3.80;;
5428;SDS011;2737;52.386;9.980;2022-08-07T02:41:37;7.30;;;4.20;;
5428;SDS011;2737;52.386;9.980;2022-08-07T02:44:04;5.27;;;3.80;;
5428;SDS011;2737;52.386;9.980;2022-08-07T02:46:33;8.00;;;4.30;;
5428;SDS011;2737;52.386;9.980;2022-08-07T02:49:02;11.87;;;5.00;;
5428;SDS011;2737;52.386;9.980;2022-08-07T02:51:30;8.70;;;4.40;;
5428;SDS011;2737;52.386;9.980;2022-08-07T02:54:00;6.47;;;4.30;;
5428;SDS011;2737;52.386;9.980;2022-08-07T02:56:28;4.60;;;3.40;;
5428;SDS011;2737;52.386;9.980;2022-08-07T02:58:59;6.60;;;4.37;;
5428;SDS011;2737;52.386;9.980;2022-08-07T03:01:28;6.73;;;4.07;;
5428;SDS011;2737;52.386;9.980;2022-08-07T03:03:58;4.93;;;3.80;;
5428;SDS011;2737;52.386;9.980;2022-08-07T03:06:26;7.33;;;3.97;;
5428;SDS011;2737;52.386;9.980;2022-08-07T03:08:56;5.60;;;4.00;;
5428;SDS011;2737;52.386;9.980;2022-08-07T03:11:23;5.90;;;3.70;;
5428;SDS011;2737;52.386;9.980;2022-08-07T03:13:50;6.27;;;4.40;;
5428;SDS011;2737;52.386;9.980;2022-08-07T03:16:18;7.73;;;4.27;;
5428;SDS011;2737;52.386;9.980;2022-08-07T03:18:46;5.07;;;3.80;;
5428;SDS011;2737;52.386;9.980;2022-08-07T03:21:14;7.27;;;4.33;;
5428;SDS011;2737;52.386;9.980;2022-08-07T03:23:42;7.60;;;4.40;;
5428;SDS011;2737;52.386;9.980;2022-08-07T03:26:11;13.73;;;4.50;;
5428;SDS011;2737;52.386;9.980;2022-08-07T03:28:44;6.07;;;4.17;;
5428;SDS011;2737;52.386;9.980;2022-08-07T03:31:12;8.13;;;3.80;;
5428;SDS011;2737;52.386;9.980;2022-08-07T03:33:46;6.93;;;4.20;;
5428;SDS011;2737;52.386;9.980;2022-08-07T03:36:17;9.60;;;5.27;;
5428;SDS011;2737;52.386;9.980;2022-08-07T03:38:47;7.63;;;5.23;;
5428;SDS011;2737;52.386;9.980;2022-08-07T03:41:15;7.77;;;4.53;;
5428;SDS011;2737;52.386;9.980;2022-08-07T03:43:42;7.27;;;4.30;;
5428;SDS011;2737;52.386;9.980;2022-08-07T03:46:10;4.60;;;3.80;;
5428;SDS011;2737;52.386;9.980;2022-08-07T03:48:38;6.40;;;4.27;;
5428;SDS011;2737;52.386;9.980;2022-08-07T03:51:05;4.97;;;3.90;;
5428;SDS011;2737;52.386;9.980;2022-08-07T03:53:35;5.00;;;3.70;;
5428;SDS011;2737;52.386;9.980;2022-08-07T03:56:04;6.77;;;4.27;;
5428;SDS011;2737;52.386;9.980;2022-08-07T03:58:33;8.07;;;3.63;;
5428;SDS011;2737;52.386;9.980;2022-08-07T04:01:03;6.30;;;4.00;;
5428;SDS011;2737;52.386;9.980;2022-08-07T04:03:30;5.73;;;4.00;;
5428;SDS011;2737;52.386;9.980;2022-08-07T04:05:58;7.00;;;4.27;;
5428;SDS011;2737;52.386;9.980;2022-08-07T04:08:25;6.00;;;4.20;;
5428;SDS011;2737;52.386;9.980;2022-08-07T04:10:55;8.60;;;4.50;;
5428;SDS011;2737;52.386;9.980;2022-08-07T04:13:22;5.10;;;3.80;;
5428;SDS011;2737;52.386;9.980;2022-08-07T04:15:50;9.03;;;4.20;;
5428;SDS011;2737;52.386;9.980;2022-08-07T04:18:17;8.43;;;4.70;;
5428;SDS011;2737;52.386;9.980;2022-08-07T04:20:44;5.10;;;4.00;;
5428;SDS011;2737;52.386;9.980;2022-08-07T04:23:12;6.90;;;4.60;;
5428;SDS011;2737;52.386;9.980;2022-08-07T04:25:39;6.07;;;4.40;;
5428;SDS011;2737;52.386;9.980;2022-08-07T04:28:08;9.07;;;4.60;;
5428;SDS011;2737;52.386;9.980;2022-08-07T04:30:36;5.63;;;4.23;;
5428;SDS011;2737;52.386;9.980;2022-08-07T04:33:05;5.90;;;4.33;;
5428;SDS011;2737;52.386;9.980;2022-08-07T04:35:33;5.60;;;4.20;;
5428;SDS011;2737;52.386;9.980;2022-08-07T04:38:03;6.20;;;4.63;;
5428;SDS011;2737;52.386;9.980;2022-08-07T04:40:31;5.50;;;4.40;;
5428;SDS011;2737;52.386;9.980;2022-08-07T04:42:58;6.80;;;4.10;;
5428;SDS011;2737;52.386;9.980;2022-08-07T04:45:28;6.93;;;4.50;;
5428;SDS011;2737;52.386;9.980;2022-08-07T04:48:03;9.03;;;5.53;;
5428;SDS011;2737;52.386;9.980;2022-08-07T04:50:36;7.03;;;5.10;;
5428;SDS011;2737;52.386;9.980;2022-08-07T04:53:07;8.73;;;4.30;;
5428;SDS011;2737;52.386;9.980;2022-08-07T04:55:41;7.63;;;5.30;;
5428;SDS011;2737;52.386;9.980;2022-08-07T04:58:16;7.77;;;5.50;;
5428;SDS011;2737;52.386;9.980;2022-08-07T05:00:50;7.10;;;4.97;;
5428;SDS011;2737;52.386;9.980;2022-08-07T05:03:22;7.30;;;4.83;;
5428;SDS011;2737;52.386;9.980;2022-08-07T05:05:58;7.03;;;5.23;;
5428;SDS011;2737;52.386;9.980;2022-08-07T05:08:35;8.57;;;5.90;;
5428;SDS011;2737;52.386;9.980;2022-08-07T05:11:08;8.83;;;5.00;;
5428;SDS011;2737;52.386;9.980;2022-08-07T05:13:40;12.70;;;5.60;;
5428;SDS011;2737;52.386;9.980;2022-08-07T05:16:14;11.70;;;5.80;;
5428;SDS011;2737;52.386;9.980;2022-08-07T05:18:44;8.83;;;6.37;;
5428;SDS011;2737;52.386;9.980;2022-08-07T05:21:16;7.33;;;5.30;;
5428;SDS011;2737;52.386;9.980;2022-08-07T05:23:46;8.80;;;5.33;;
5428;SDS011;2737;52.386;9.980;2022-08-07T05:26:18;8.30;;;5.30;;
5428;SDS011;2737;52.386;9.980;2022-08-07T05:28:48;8.73;;;6.30;;
5428;SDS011;2737;52.386;9.980;2022-08-07T05:31:21;11.80;;;5.87;;
5428;SDS011;2737;52.386;9.980;2022-08-07T05:33:50;13.50;;;7.93;;
5428;SDS011;2737;52.386;9.980;2022-08-07T05:36:19;9.83;;;6.43;;
5428;SDS011;2737;52.386;9.980;2022-08-07T05:38:47;8.40;;;5.47;;
5428;SDS011;2737;52.386;9.980;2022-08-07T05:41:16;7.73;;;5.13;;
5428;SDS011;2737;52.386;9.980;2022-08-07T05:43:45;9.10;;;6.03;;
5428;SDS011;2737;52.386;9.980;2022-08-07T05:46:14;7.80;;;6.07;;
5428;SDS011;2737;52.386;9.980;2022-08-07T05:48:43;13.50;;;6.27;;
5428;SDS011;2737;52.386;9.980;2022-08-07T05:51:11;11.60;;;5.90;;
5428;SDS011;2737;52.386;9.980;2022-08-07T05:53:40;9.13;;;6.20;;
5428;SDS011;2737;52.386;9.980;2022-08-07T05:56:07;10.90;;;5.23;;
5428;SDS011;2737;52.386;9.980;2022-08-07T05:58:35;8.57;;;5.97;;
5428;SDS011;2737;52.386;9.980;2022-08-07T06:01:03;8.53;;;5.60;;
5428;SDS011;2737;52.386;9.980;2022-08-07T06:03:31;8.03;;;5.20;;
5428;SDS011;2737;52.386;9.980;2022-08-07T06:06:02;8.27;;;5.27;;
5428;SDS011;2737;52.386;9.980;2022-08-07T06:08:31;7.97;;;5.47;;
5428;SDS011;2737;52.386;9.980;2022-08-07T06:10:58;8.00;;;5.30;;
5428;SDS011;2737;52.386;9.980;2022-08-07T06:13:25;7.63;;;5.70;;
5428;SDS011;2737;52.386;9.980;2022-08-07T06:15:53;7.07;;;4.87;;
5428;SDS011;2737;52.386;9.980;2022-08-07T06:18:23;9.83;;;4.97;;
5428;SDS011;2737;52.386;9.980;2022-08-07T06:20:50;7.20;;;4.60;;
5428;SDS011;2737;52.386;9.980;2022-08-07T06:23:20;9.60;;;5.67;;
5428;SDS011;2737;52.386;9.980;2022-08-07T06:25:47;6.33;;;5.10;;
5428;SDS011;2737;52.386;9.980;2022-08-07T06:28:15;7.27;;;4.70;;
5428;SDS011;2737;52.386;9.980;2022-08-07T06:30:42;7.47;;;4.70;;
5428;SDS011;2737;52.386;9.980;2022-08-07T06:33:09;11.60;;;5.10;;
5428;SDS011;2737;52.386;9.980;2022-08-07T06:35:36;7.43;;;4.73;;
5428;SDS011;2737;52.386;9.980;2022-08-07T06:38:03;8.67;;;4.80;;
5428;SDS011;2737;52.386;9.980;2022-08-07T06:40:33;7.50;;;4.20;;
5428;SDS011;2737;52.386;9.980;2022-08-07T06:43:02;9.57;;;5.10;;
5428;SDS011;2737;52.386;9.980;2022-08-07T06:45:34;4.80;;;4.20;;
5428;SDS011;2737;52.386;9.980;2022-08-07T06:48:01;6.13;;;4.30;;
5428;SDS011;2737;52.386;9.980;2022-08-07T06:50:30;8.30;;;4.33;;
5428;SDS011;2737;52.386;9.980;2022-08-07T06:52:59;7.93;;;4.13;;
5428;SDS011;2737;52.386;9.980;2022-08-07T06:55:28;5.97;;;3.87;;
5428;SDS011;2737;52.386;9.980;2022-08-07T06:57:58;10.83;;;4.00;;
5428;SDS011;2737;52.386;9.980;2022-08-07T07:00:27;10.40;;;4.07;;
5428;SDS011;2737;52.386;9.980;2022-08-07T07:02:58;4.80;;;4.27;;
5428;SDS011;2737;52.386;9.980;2022-08-07T07:05:27;4.90;;;3.90;;
5428;SDS011;2737;52.386;9.980;2022-08-07T07:07:54;4.47;;;3.73;;
5428;SDS011;2737;52.386;9.980;2022-08-07T07:10:26;5.10;;;3.83;;
5428;SDS011;2737;52.386;9.980;2022-08-07T07:12:54;7.67;;;4.33;;
5428;SDS011;2737;52.386;9.980;2022-08-07T07:15:27;10.30;;;4.70;;
5428;SDS011;2737;52.386;9.980;2022-08-07T07:17:56;6.90;;;3.93;;
5428;SDS011;2737;52.386;9.980;2022-08-07T07:20:29;7.87;;;4.40;;
5428;SDS011;2737;52.386;9.980;2022-08-07T07:23:00;8.50;;;4.27;;
5428;SDS011;2737;52.386;9.980;2022-08-07T07:25:27;6.43;;;3.90;;
5428;SDS011;2737;52.386;9.980;2022-08-07T07:27:56;6.07;;;3.77;;
5428;SDS011;2737;52.386;9.980;2022-08-07T07:30:28;5.80;;;4.23;;
5428;SDS011;2737;52.386;9.980;2022-08-07T07:33:00;10.68;;;4.65;;
5428;SDS011;2737;52.386;9.980;2022-08-07T07:35:29;9.73;;;3.97;;
5428;SDS011;2737;52.386;9.980;2022-08-07T07:37:59;5.47;;;3.75;;
5428;SDS011;2737;52.386;9.980;2022-08-07T07:40:28;6.40;;;3.93;;
5428;SDS011;2737;52.386;9.980;2022-08-07T07:42:57;5.73;;;4.20;;
5428;SDS011;2737;52.386;9.980;2022-08-07T07:45:28;5.73;;;4.13;;
5428;SDS011;2737;52.386;9.980;2022-08-07T07:47:57;6.80;;;3.83;;
5428;SDS011;2737;52.386;9.980;2022-08-07T07:50:28;6.35;;;4.28;;
5428;SDS011;2737;52.386;9.980;2022-08-07T07:52:57;4.50;;;3.67;;
5428;SDS011;2737;52.386;9.980;2022-08-07T07:55:25;6.33;;;4.33;;
5428;SDS011;2737;52.386;9.980;2022-08-07T07:57:59;5.22;;;4.00;;
5428;SDS011;2737;52.386;9.980;2022-08-07T08:00:30;6.40;;;3.78;;
5428;SDS011;2737;52.386;9.980;2022-08-07T08:03:01;7.07;;;3.67;;
5428;SDS011;2737;52.386;9.980;2022-08-07T08:05:30;8.32;;;3.75;;
5428;SDS011;2737;52.386;9.980;2022-08-07T08:07:58;9.88;;;3.45;;
5428;SDS011;2737;52.386;9.980;2022-08-07T08:10:25;14.07;;;3.70;;
5428;SDS011;2737;52.386;9.980;2022-08-07T08:12:53;6.97;;;4.00;;
5428;SDS011;2737;52.386;9.980;2022-08-07T08:15:20;10.43;;;4.05;;
5428;SDS011;2737;52.386;9.980;2022-08-07T08:17:49;5.05;;;3.75;;
5428;SDS011;2737;52.386;9.980;2022-08-07T08:20:17;4.88;;;3.20;;
5428;SDS011;2737;52.386;9.980;2022-08-07T08:22:45;5.70;;;3.00;;
5428;SDS011;2737;52.386;9.980;2022-08-07T08:25:32;4.18;;;3.17;;
5428;SDS011;2737;52.386;9.980;2022-08-07T08:28:19;4.50;;;2.92;;
5428;SDS011;2737;52.386;9.980;2022-08-07T08:30:50;3.30;;;3.00;;
5428;SDS011;2737;52.386;9.980;2022-08-07T08:33:23;2.70;;;2.17;;
5428;SDS011;2737;52.386;9.980;2022-08-07T08:35:52;3.83;;;2.20;;
5428;SDS011;2737;52.386;9.980;2022-08-07T08:38:21;4.95;;;2.78;;
5428;SDS011;2737;52.386;9.980;2022-08-07T08:40:52;4.68;;;2.70;;
5428;SDS011;2737;52.386;9.980;2022-08-07T08:43:30;5.10;;;3.03;;
5428;SDS011;2737;52.386;9.980;2022-08-07T08:46:03;3.33;;;2.55;;
5428;SDS011;2737;52.386;9.980;2022-08-07T08:48:36;3.53;;;2.65;;
5428;SDS011;2737;52.386;9.980;2022-08-07T08:51:09;4.05;;;2.42;;
5428;SDS011;2737;52.386;9.980;2022-08-07T08:53:43;4.50;;;2.70;;
5428;SDS011;2737;52.386;9.980;2022-08-07T08:56:18;4.20;;;2.47;;
5428;SDS011;2737;52.386;9.980;2022-08-07T08:58:51;5.47;;;2.50;;
5428;SDS011;2737;52.386;9.980;2022-08-07T09:01:23;2.53;;;2.33;;
5428;SDS011;2737;52.386;9.980;2022-08-07T09:03:57;8.05;;;2.60;;
5428;SDS011;2737;52.386;9.980;2022-08-07T09:06:36;4.03;;;2.13;;
5428;SDS011;2737;52.386;9.980;2022-08-07T09:09:20;1.80;;;1.70;;
5428;SDS011;2737;52.386;9.980;2022-08-07T09:12:00;3.45;;;2.22;;
5428;SDS011;2737;52.386;9.980;2022-08-07T09:14:35;5.43;;;2.42;;
5428;SDS011;2737;52.386;9.980;2022-08-07T09:17:11;2.97;;;2.53;;
5428;SDS011;2737;52.386;9.980;2022-08-07T09:19:51;6.18;;;2.30;;
5428;SDS011;2737;52.386;9.980;2022-08-07T09:22:28;2.97;;;2.00;;
5428;SDS011;2737;52.386;9.980;2022-08-07T09:25:09;3.00;;;1.60;;
5428;SDS011;2737;52.386;9.980;2022-08-07T09:27:43;2.65;;;1.88;;
5428;SDS011;2737;52.386;9.980;2022-08-07T09:30:16;2.17;;;1.60;;
5428;SDS011;2737;52.386;9.980;2022-08-07T09:32:56;7.22;;;1.90;;
5428;SDS011;2737;52.386;9.980;2022-08-07T09:35:37;3.22;;;1.48;;
5428;SDS011;2737;52.386;9.980;2022-08-07T09:38:11;3.15;;;1.73;;
5428;SDS011;2737;52.386;9.980;2022-08-07T09:40:50;7.00;;;1.30;;
5428;SDS011;2737;52.386;9.980;2022-08-07T09:43:30;2.08;;;1.17;;
5428;SDS011;2737;52.386;9.980;2022-08-07T09:46:07;3.03;;;1.17;;
5428;SDS011;2737;52.386;9.980;2022-08-07T09:48:45;2.08;;;1.40;;
5428;SDS011;2737;52.386;9.980;2022-08-07T09:51:25;2.55;;;1.35;;
5428;SDS011;2737;52.386;9.980;2022-08-07T09:54:07;2.90;;;1.80;;
5428;SDS011;2737;52.386;9.980;2022-08-07T09:59:40;1.60;;;1.20;;
5428;SDS011;2737;52.386;9.980;2022-08-07T10:02:24;2.35;;;1.50;;
5428;SDS011;2737;52.386;9.980;2022-08-07T10:05:16;4.22;;;1.50;;
5428;SDS011;2737;52.386;9.980;2022-08-07T10:08:01;3.63;;;1.33;;
5428;SDS011;2737;52.386;9.980;2022-08-07T10:10:39;2.55;;;1.63;;
5428;SDS011;2737;52.386;9.980;2022-08-07T10:16:28;0.80;;;0.80;;
5428;SDS011;2737;52.386;9.980;2022-08-07T10:19:28;3.92;;;1.40;;
5428;SDS011;2737;52.386;9.980;2022-08-07T10:22:08;2.15;;;1.40;;
5428;SDS011;2737;52.386;9.980;2022-08-07T10:24:50;2.55;;;1.60;;
5428;SDS011;2737;52.386;9.980;2022-08-07T10:27:31;2.30;;;1.50;;
5428;SDS011;2737;52.386;9.980;2022-08-07T10:30:12;1.92;;;1.35;;
5428;SDS011;2737;52.386;9.980;2022-08-07T10:32:53;2.22;;;1.45;;
5428;SDS011;2737;52.386;9.980;2022-08-07T10:35:47;3.03;;;1.50;;
5428;SDS011;2737;52.386;9.980;2022-08-07T10:38:24;2.85;;;2.05;;
5428;SDS011;2737;52.386;9.980;2022-08-07T10:41:08;3.20;;;1.65;;
5428;SDS011;2737;52.386;9.980;2022-08-07T10:43:41;2.55;;;1.25;;
5428;SDS011;2737;52.386;9.980;2022-08-07T10:46:14;4.38;;;1.52;;
5428;SDS011;2737;52.386;9.980;2022-08-07T10:48:48;2.60;;;1.38;;
5428;SDS011;2737;52.386;9.980;2022-08-07T10:51:26;3.42;;;1.20;;
5428;SDS011;2737;52.386;9.980;2022-08-07T10:54:02;4.00;;;1.48;;
5428;SDS011;2737;52.386;9.980;2022-08-07T10:56:42;5.70;;;1.52;;
5428;SDS011;2737;52.386;9.980;2022-08-07T10:59:19;2.05;;;1.30;;
5428;SDS011;2737;52.386;9.980;2022-08-07T11:01:59;1.85;;;1.20;;
5428;SDS011;2737;52.386;9.980;2022-08-07T11:04:35;3.95;;;1.40;;
5428;SDS011;2737;52.386;9.980;2022-08-07T11:07:17;3.65;;;1.30;;
5428;SDS011;2737;52.386;9.980;2022-08-07T11:09:53;1.92;;;1.20;;
5428;SDS011;2737;52.386;9.980;2022-08-07T11:12:26;1.67;;;1.30;;
5428;SDS011;2737;52.386;9.980;2022-08-07T11:14:59;2.10;;;1.30;;
5428;SDS011;2737;52.386;9.980;2022-08-07T11:17:29;2.63;;;1.40;;
5428;SDS011;2737;52.386;9.980;2022-08-07T11:20:03;2.15;;;1.38;;
5428;SDS011;2737;52.386;9.980;2022-08-07T11:22:34;2.60;;;1.08;;
5428;SDS011;2737;52.386;9.980;2022-08-07T11:25:08;2.40;;;1.63;;
5428;SDS011;2737;52.386;9.980;2022-08-07T11:27:41;2.72;;;1.42;;
5428;SDS011;2737;52.386;9.980;2022-08-07T11:30:16;1.60;;;1.50;;
5428;SDS011;2737;52.386;9.980;2022-08-07T11:32:46;3.97;;;1.60;;
5428;SDS011;2737;52.386;9.980;2022-08-07T11:35:20;1.38;;;1.20;;
5428;SDS011;2737;52.386;9.980;2022-08-07T11:37:55;1.85;;;1.30;;
5428;SDS011;2737;52.386;9.980;2022-08-07T11:40:35;1.77;;;1.40;;
5428;SDS011;2737;52.386;9.980;2022-08-07T11:43:12;2.47;;;1.30;;
5428;SDS011;2737;52.386;9.980;2022-08-07T11:45:52;2.65;;;1.70;;
5428;SDS011;2737;52.386;9.980;2022-08-07T11:48:37;1.67;;;1.17;;
5428;SDS011;2737;52.386;9.980;2022-08-07T11:51:22;3.47;;;1.15;;
5428;SDS011;2737;52.386;9.980;2022-08-07T11:54:10;4.00;;;1.10;;
5428;SDS011;2737;52.386;9.980;2022-08-07T11:56:46;1.40;;;1.25;;
5428;SDS011;2737;52.386;9.980;2022-08-07T11:59:43;1.88;;;1.23;;
5428;SDS011;2737;52.386;9.980;2022-08-07T12:02:26;1.45;;;1.25;;
5428;SDS011;2737;52.386;9.980;2022-08-07T12:05:05;1.50;;;1.10;;
5428;SDS011;2737;52.386;9.980;2022-08-07T12:07:39;3.78;;;1.23;;
5428;SDS011;2737;52.386;9.980;2022-08-07T12:10:12;1.40;;;1.23;;
5428;SDS011;2737;52.386;9.980;2022-08-07T12:12:45;1.55;;;1.38;;
5428;SDS011;2737;52.386;9.980;2022-08-07T12:15:21;2.03;;;1.27;;
5428;SDS011;2737;52.386;9.980;2022-08-07T12:17:51;2.67;;;1.50;;
5428;SDS011;2737;52.386;9.980;2022-08-07T12:20:25;5.65;;;1.23;;
5428;SDS011;2737;52.386;9.980;2022-08-07T12:23:05;6.10;;;1.33;;
5428;SDS011;2737;52.386;9.980;2022-08-07T12:25:44;1.75;;;1.42;;
5428;SDS011;2737;52.386;9.980;2022-08-07T12:28:19;2.00;;;1.20;;
5428;SDS011;2737;52.386;9.980;2022-08-07T12:30:55;4.15;;;1.02;;
5428;SDS011;2737;52.386;9.980;2022-08-07T12:33:28;1.63;;;0.90;;
5428;SDS011;2737;52.386;9.980;2022-08-07T12:35:58;1.10;;;1.00;;
5428;SDS011;2737;52.386;9.980;2022-08-07T12:38:26;2.88;;;1.23;;
5428;SDS011;2737;52.386;9.980;2022-08-07T12:40:56;5.30;;;1.60;;
5428;SDS011;2737;52.386;9.980;2022-08-07T12:43:27;1.50;;;1.40;;
5428;SDS011;2737;52.386;9.980;2022-08-07T12:46:03;1.77;;;1.15;;
5428;SDS011;2737;52.386;9.980;2022-08-07T12:48:38;2.50;;;1.13;;
5428;SDS011;2737;52.386;9.980;2022-08-07T12:51:14;2.95;;;1.48;;
5428;SDS011;2737;52.386;9.980;2022-08-07T12:53:46;5.80;;;1.45;;
5428;SDS011;2737;52.386;9.980;2022-08-07T12:56:18;2.22;;;1.20;;
5428;SDS011;2737;52.386;9.980;2022-08-07T12:58:51;2.45;;;1.20;;
5428;SDS011;2737;52.386;9.980;2022-08-07T13:03:59;3.95;;;1.08;;
5428;SDS011;2737;52.386;9.980;2022-08-07T13:06:43;3.03;;;1.20;;
5428;SDS011;2737;52.386;9.980;2022-08-07T13:09:26;1.70;;;1.20;;
5428;SDS011;2737;52.386;9.980;2022-08-07T13:12:06;4.20;;;1.70;;
5428;SDS011;2737;52.386;9.980;2022-08-07T13:14:42;1.70;;;1.35;;
5428;SDS011;2737;52.386;9.980;2022-08-07T13:17:23;2.40;;;1.10;;
5428;SDS011;2737;52.386;9.980;2022-08-07T13:20:02;1.77;;;1.20;;
5428;SDS011;2737;52.386;9.980;2022-08-07T13:22:35;2.17;;;1.25;;
5428;SDS011;2737;52.386;9.980;2022-08-07T13:25:08;2.83;;;1.40;;
5428;SDS011;2737;52.386;9.980;2022-08-07T13:27:37;2.17;;;1.25;;
5428;SDS011;2737;52.386;9.980;2022-08-07T13:30:09;1.88;;;1.10;;
5428;SDS011;2737;52.386;9.980;2022-08-07T13:32:39;4.25;;;1.20;;
5428;SDS011;2737;52.386;9.980;2022-08-07T13:35:18;4.07;;;1.55;;
5428;SDS011;2737;52.386;9.980;2022-08-07T13:37:48;1.98;;;1.10;;
5428;SDS011;2737;52.386;9.980;2022-08-07T13:40:27;2.40;;;1.13;;
5428;SDS011;2737;52.386;9.980;2022-08-07T13:42:56;1.85;;;0.93;;
5428;SDS011;2737;52.386;9.980;2022-08-07T13:45:26;2.00;;;1.00;;
5428;SDS011;2737;52.386;9.980;2022-08-07T13:47:56;1.52;;;1.20;;
5428;SDS011;2737;52.386;9.980;2022-08-07T13:50:25;2.38;;;1.10;;
5428;SDS011;2737;52.386;9.980;2022-08-07T13:52:54;1.30;;;1.17;;
5428;SDS011;2737;52.386;9.980;2022-08-07T13:55:23;1.70;;;1.10;;
5428;SDS011;2737;52.386;9.980;2022-08-07T13:57:57;1.50;;;1.00;;
5428;SDS011;2737;52.386;9.980;2022-08-07T14:00:49;1.20;;;1.10;;
5428;SDS011;2737;52.386;9.980;2022-08-07T14:03:18;1.65;;;0.90;;
5428;SDS011;2737;52.386;9.980;2022-08-07T14:05:50;1.33;;;1.10;;
5428;SDS011;2737;52.386;9.980;2022-08-07T14:08:21;1.17;;;1.08;;
5428;SDS011;2737;52.386;9.980;2022-08-07T14:10:50;1.77;;;1.20;;
5428;SDS011;2737;52.386;9.980;2022-08-07T14:13:21;2.78;;;1.25;;
5428;SDS011;2737;52.386;9.980;2022-08-07T14:15:57;1.83;;;1.40;;
5428;SDS011;2737;52.386;9.980;2022-08-07T14:18:30;1.25;;;1.15;;
5428;SDS011;2737;52.386;9.980;2022-08-07T14:21:07;0.95;;;0.90;;
5428;SDS011;2737;52.386;9.980;2022-08-07T14:23:38;1.70;;;1.05;;
5428;SDS011;2737;52.386;9.980;2022-08-07T14:26:12;2.15;;;1.25;;
5428;SDS011;2737;52.386;9.980;2022-08-07T14:28:45;2.35;;;1.00;;
5428;SDS011;2737;52.386;9.980;2022-08-07T14:31:14;1.95;;;1.10;;
5428;SDS011;2737;52.386;9.980;2022-08-07T14:33:42;1.48;;;1.20;;
5428;SDS011;2737;52.386;9.980;2022-08-07T14:36:13;1.95;;;1.00;;
5428;SDS011;2737;52.386;9.980;2022-08-07T14:38:41;2.03;;;1.30;;
5428;SDS011;2737;52.386;9.980;2022-08-07T14:41:11;1.80;;;1.10;;
5428;SDS011;2737;52.386;9.980;2022-08-07T14:43:44;2.95;;;1.33;;
5428;SDS011;2737;52.386;9.980;2022-08-07T14:46:15;1.33;;;1.10;;
5428;SDS011;2737;52.386;9.980;2022-08-07T14:48:44;1.50;;;1.23;;
5428;SDS011;2737;52.386;9.980;2022-08-07T14:51:18;5.10;;;1.40;;
5428;SDS011;2737;52.386;9.980;2022-08-07T14:53:49;6.28;;;1.63;;
5428;SDS011;2737;52.386;9.980;2022-08-07T14:56:18;2.65;;;1.20;;
5428;SDS011;2737;52.386;9.980;2022-08-07T14:58:48;8.15;;;6.32;;
5428;SDS011;2737;52.386;9.980;2022-08-07T15:01:18;3.75;;;1.50;;
5428;SDS011;2737;52.386;9.980;2022-08-07T15:03:49;2.28;;;2.00;;
5428;SDS011;2737;52.386;9.980;2022-08-07T15:06:21;2.13;;;1.40;;
5428;SDS011;2737;52.386;9.980;2022-08-07T15:08:50;5.22;;;1.63;;
5428;SDS011;2737;52.386;9.980;2022-08-07T15:11:19;1.30;;;0.95;;
5428;SDS011;2737;52.386;9.980;2022-08-07T15:13:51;2.47;;;1.10;;
5428;SDS011;2737;52.386;9.980;2022-08-07T15:16:20;2.03;;;1.27;;
5428;SDS011;2737;52.386;9.980;2022-08-07T15:18:54;2.28;;;1.30;;
5428;SDS011;2737;52.386;9.980;2022-08-07T15:21:24;4.53;;;1.05;;
5428;SDS011;2737;52.386;9.980;2022-08-07T15:23:54;2.42;;;1.63;;
5428;SDS011;2737;52.386;9.980;2022-08-07T15:26:31;3.03;;;1.27;;
5428;SDS011;2737;52.386;9.980;2022-08-07T15:29:01;1.13;;;1.02;;
5428;SDS011;2737;52.386;9.980;2022-08-07T15:31:30;3.15;;;1.25;;
5428;SDS011;2737;52.386;9.980;2022-08-07T15:34:01;3.20;;;1.42;;
5428;SDS011;2737;52.386;9.980;2022-08-07T15:36:32;1.45;;;1.20;;
5428;SDS011;2737;52.386;9.980;2022-08-07T15:39:01;1.58;;;0.85;;
5428;SDS011;2737;52.386;9.980;2022-08-07T15:41:29;8.43;;;1.10;;
5428;SDS011;2737;52.386;9.980;2022-08-07T15:44:04;1.55;;;1.27;;
5428;SDS011;2737;52.386;9.980;2022-08-07T15:46:35;1.75;;;1.30;;
5428;SDS011;2737;52.386;9.980;2022-08-07T15:49:04;1.85;;;1.10;;
5428;SDS011;2737;52.386;9.980;2022-08-07T15:51:37;2.40;;;1.40;;